sensor_id;sensor_type;location;lat;lon;timestamp;P1;durP1;ratioP1;P2;durP2;ratioP2
45274;SDS011;31019;43.780;25.948;2023-04-03T00:01:24;69.97;;;63.38;;
45274;SDS011;31019;43.780;25.948;2023-04-03T00:03:51;69.53;;;62.85;;
45274;SDS011;31019;43.780;25.948;2023-04-03T00:06:18;69.50;;;62.83;;
45274;SDS011;31019;43.780;25.948;2023-04-03T00:08:45;68.25;;;61.55;;
45274;SDS011;31019;43.780;25.948;2023-04-03T00:11:12;62.35;;;56.00;;
45274;SDS011;31019;43.780;25.948;2023-04-03T00:13:39;70.45;;;63.90;;
45274;SDS011;31019;43.780;25.948;2023-04-03T00:16:08;74.72;;;67.50;;
45274;SDS011;31019;43.780;25.948;2023-04-03T00:18:36;68.07;;;61.35;;
45274;SDS011;31019;43.780;25.948;2023-04-03T00:21:03;70.45;;;62.90;;
45274;SDS011;31019;43.780;25.948;2023-04-03T00:23:31;69.60;;;62.30;;
45274;SDS011;31019;43.780;25.948;2023-04-03T00:25:58;77.90;;;70.28;;
45274;SDS011;31019;43.780;25.948;2023-04-03T00:28:25;77.70;;;69.20;;
45274;SDS011;31019;43.780;25.948;2023-04-03T00:30:51;81.30;;;73.00;;
45274;SDS011;31019;43.780;25.948;2023-04-03T00:33:20;72.13;;;64.53;;
45274;SDS011;31019;43.780;25.948;2023-04-03T00:35:47;116.78;;;90.32;;
45274;SDS011;31019;43.780;25.948;2023-04-03T00:38:14;104.25;;;79.70;;
45274;SDS011;31019;43.780;25.948;2023-04-03T00:40:42;143.40;;;88.28;;
45274;SDS011;31019;43.780;25.948;2023-04-03T00:43:11;79.20;;;71.10;;
45274;SDS011;31019;43.780;25.948;2023-04-03T00:45:40;73.45;;;66.05;;
45274;SDS011;31019;43.780;25.948;2023-04-03T00:48:09;78.30;;;70.93;;
45274;SDS011;31019;43.780;25.948;2023-04-03T00:50:41;82.07;;;74.60;;
45274;SDS011;31019;43.780;25.948;2023-04-03T00:53:10;80.25;;;72.93;;
45274;SDS011;31019;43.780;25.948;2023-04-03T00:55:40;76.60;;;69.55;;
45274;SDS011;31019;43.780;25.948;2023-04-03T00:58:09;122.50;;;82.97;;
45274;SDS011;31019;43.780;25.948;2023-04-03T01:00:37;73.50;;;59.65;;
45274;SDS011;31019;43.780;25.948;2023-04-03T01:03:06;110.55;;;79.45;;
45274;SDS011;31019;43.780;25.948;2023-04-03T01:05:33;86.45;;;71.43;;
45274;SDS011;31019;43.780;25.948;2023-04-03T01:08:01;78.53;;;70.15;;
45274;SDS011;31019;43.780;25.948;2023-04-03T01:10:28;69.95;;;62.30;;
45274;SDS011;31019;43.780;25.948;2023-04-03T01:12:55;67.55;;;60.38;;
45274;SDS011;31019;43.780;25.948;2023-04-03T01:15:23;74.85;;;64.90;;
45274;SDS011;31019;43.780;25.948;2023-04-03T01:17:54;78.35;;;70.18;;
45274;SDS011;31019;43.780;25.948;2023-04-03T01:25:52;75.35;;;67.47;;
45274;SDS011;31019;43.780;25.948;2023-04-03T01:28:21;89.18;;;80.47;;
45274;SDS011;31019;43.780;25.948;2023-04-03T01:30:50;72.30;;;64.97;;
45274;SDS011;31019;43.780;25.948;2023-04-03T01:33:26;68.82;;;62.10;;
45274;SDS011;31019;43.780;25.948;2023-04-03T01:35:52;73.38;;;66.38;;
45274;SDS011;31019;43.780;25.948;2023-04-03T01:38:19;76.80;;;69.40;;
45274;SDS011;31019;43.780;25.948;2023-04-03T01:40:46;81.57;;;74.10;;
45274;SDS011;31019;43.780;25.948;2023-04-03T01:43:13;574.72;;;264.52;;
45274;SDS011;31019;43.780;25.948;2023-04-03T01:45:40;265.00;;;126.93;;
45274;SDS011;31019;43.780;25.948;2023-04-03T01:48:07;116.03;;;83.65;;
45274;SDS011;31019;43.780;25.948;2023-04-03T01:50:35;72.15;;;64.85;;
45274;SDS011;31019;43.780;25.948;2023-04-03T01:53:01;74.28;;;67.07;;
45274;SDS011;31019;43.780;25.948;2023-04-03T01:55:28;67.03;;;60.58;;
45274;SDS011;31019;43.780;25.948;2023-04-03T01:57:55;75.38;;;67.97;;
45274;SDS011;31019;43.780;25.948;2023-04-03T02:08:17;74.70;;;67.57;;
45274;SDS011;31019;43.780;25.948;2023-04-03T02:10:46;73.85;;;66.95;;
45274;SDS011;31019;43.780;25.948;2023-04-03T02:13:13;85.88;;;76.85;;
45274;SDS011;31019;43.780;25.948;2023-04-03T02:15:40;125.93;;;113.53;;
45274;SDS011;31019;43.780;25.948;2023-04-03T02:18:07;109.63;;;100.72;;
45274;SDS011;31019;43.780;25.948;2023-04-03T02:20:34;81.70;;;74.10;;
45274;SDS011;31019;43.780;25.948;2023-04-03T02:23:02;87.97;;;79.68;;
45274;SDS011;31019;43.780;25.948;2023-04-03T02:25:30;85.32;;;77.40;;
45274;SDS011;31019;43.780;25.948;2023-04-03T02:27:58;79.43;;;71.70;;
45274;SDS011;31019;43.780;25.948;2023-04-03T02:30:24;92.93;;;84.53;;
45274;SDS011;31019;43.780;25.948;2023-04-03T02:32:51;101.50;;;92.25;;
45274;SDS011;31019;43.780;25.948;2023-04-03T02:35:18;82.60;;;74.78;;
45274;SDS011;31019;43.780;25.948;2023-04-03T02:37:45;95.15;;;86.07;;
45274;SDS011;31019;43.780;25.948;2023-04-03T02:40:13;90.10;;;81.80;;
45274;SDS011;31019;43.780;25.948;2023-04-03T02:42:40;72.07;;;65.20;;
45274;SDS011;31019;43.780;25.948;2023-04-03T02:45:07;77.85;;;70.45;;
45274;SDS011;31019;43.780;25.948;2023-04-03T02:47:35;69.50;;;63.13;;
45274;SDS011;31019;43.780;25.948;2023-04-03T02:50:01;73.65;;;67.05;;
45274;SDS011;31019;43.780;25.948;2023-04-03T02:52:28;68.78;;;62.65;;
45274;SDS011;31019;43.780;25.948;2023-04-03T02:54:55;64.75;;;58.75;;
45274;SDS011;31019;43.780;25.948;2023-04-03T02:57:23;62.67;;;57.03;;
45274;SDS011;31019;43.780;25.948;2023-04-03T02:59:50;64.10;;;58.10;;
45274;SDS011;31019;43.780;25.948;2023-04-03T03:02:17;74.55;;;68.07;;
45274;SDS011;31019;43.780;25.948;2023-04-03T03:04:44;65.15;;;59.05;;
45274;SDS011;31019;43.780;25.948;2023-04-03T03:07:10;65.25;;;59.08;;
45274;SDS011;31019;43.780;25.948;2023-04-03T03:09:37;66.93;;;60.55;;
45274;SDS011;31019;43.780;25.948;2023-04-03T03:12:04;59.92;;;54.30;;
45274;SDS011;31019;43.780;25.948;2023-04-03T03:14:32;73.95;;;67.85;;
45274;SDS011;31019;43.780;25.948;2023-04-03T03:16:59;70.30;;;64.35;;
45274;SDS011;31019;43.780;25.948;2023-04-03T03:19:26;72.18;;;65.88;;
45274;SDS011;31019;43.780;25.948;2023-04-03T03:21:53;70.95;;;64.93;;
45274;SDS011;31019;43.780;25.948;2023-04-03T03:24:20;78.03;;;71.25;;
45274;SDS011;31019;43.780;25.948;2023-04-03T03:26:46;70.50;;;64.50;;
45274;SDS011;31019;43.780;25.948;2023-04-03T03:29:13;78.07;;;71.47;;
45274;SDS011;31019;43.780;25.948;2023-04-03T03:31:41;77.93;;;71.40;;
45274;SDS011;31019;43.780;25.948;2023-04-03T03:34:08;70.70;;;64.55;;
45274;SDS011;31019;43.780;25.948;2023-04-03T03:36:35;67.00;;;60.83;;
45274;SDS011;31019;43.780;25.948;2023-04-03T03:39:01;72.57;;;65.95;;
45274;SDS011;31019;43.780;25.948;2023-04-03T03:41:28;73.20;;;66.90;;
45274;SDS011;31019;43.780;25.948;2023-04-03T03:43:56;72.55;;;66.28;;
45274;SDS011;31019;43.780;25.948;2023-04-03T03:46:23;79.43;;;72.68;;
45274;SDS011;31019;43.780;25.948;2023-04-03T03:48:51;68.20;;;62.20;;
45274;SDS011;31019;43.780;25.948;2023-04-03T03:51:17;62.15;;;56.50;;
45274;SDS011;31019;43.780;25.948;2023-04-03T03:53:44;68.32;;;62.15;;
45274;SDS011;31019;43.780;25.948;2023-04-03T03:56:11;61.88;;;56.28;;
45274;SDS011;31019;43.780;25.948;2023-04-03T03:58:38;62.17;;;56.40;;
45274;SDS011;31019;43.780;25.948;2023-04-03T04:01:05;59.03;;;53.33;;
45274;SDS011;31019;43.780;25.948;2023-04-03T04:03:32;60.20;;;54.63;;
45274;SDS011;31019;43.780;25.948;2023-04-03T04:06:00;59.90;;;54.40;;
45274;SDS011;31019;43.780;25.948;2023-04-03T04:08:27;60.30;;;55.08;;
45274;SDS011;31019;43.780;25.948;2023-04-03T04:10:54;57.33;;;52.03;;
45274;SDS011;31019;43.780;25.948;2023-04-03T04:13:21;57.78;;;52.42;;
45274;SDS011;31019;43.780;25.948;2023-04-03T04:15:47;53.65;;;48.83;;
45274;SDS011;31019;43.780;25.948;2023-04-03T04:18:14;57.03;;;51.85;;
45274;SDS011;31019;43.780;25.948;2023-04-03T04:20:41;57.20;;;51.83;;
45274;SDS011;31019;43.780;25.948;2023-04-03T04:23:09;126.97;;;83.82;;
45274;SDS011;31019;43.780;25.948;2023-04-03T04:25:36;150.05;;;89.63;;
45274;SDS011;31019;43.780;25.948;2023-04-03T04:28:02;122.40;;;83.10;;
45274;SDS011;31019;43.780;25.948;2023-04-03T04:30:29;100.90;;;78.57;;
45274;SDS011;31019;43.780;25.948;2023-04-03T04:32:56;94.60;;;74.88;;
45274;SDS011;31019;43.780;25.948;2023-04-03T04:35:23;71.60;;;64.45;;
45274;SDS011;31019;43.780;25.948;2023-04-03T04:37:49;75.78;;;67.90;;
45274;SDS011;31019;43.780;25.948;2023-04-03T04:40:18;72.32;;;64.60;;
45274;SDS011;31019;43.780;25.948;2023-04-03T04:42:44;74.03;;;67.13;;
45274;SDS011;31019;43.780;25.948;2023-04-03T04:45:11;69.93;;;62.55;;
45274;SDS011;31019;43.780;25.948;2023-04-03T04:47:38;81.88;;;73.68;;
45274;SDS011;31019;43.780;25.948;2023-04-03T04:50:05;79.13;;;71.40;;
45274;SDS011;31019;43.780;25.948;2023-04-03T04:52:32;80.43;;;72.70;;
45274;SDS011;31019;43.780;25.948;2023-04-03T04:54:59;73.65;;;66.80;;
45274;SDS011;31019;43.780;25.948;2023-04-03T04:57:27;74.60;;;68.00;;
45274;SDS011;31019;43.780;25.948;2023-04-03T04:59:54;75.88;;;69.05;;
45274;SDS011;31019;43.780;25.948;2023-04-03T05:02:21;77.57;;;70.65;;
45274;SDS011;31019;43.780;25.948;2023-04-03T05:04:47;84.57;;;77.97;;
45274;SDS011;31019;43.780;25.948;2023-04-03T05:07:17;94.50;;;85.00;;
45274;SDS011;31019;43.780;25.948;2023-04-03T05:09:43;84.13;;;75.22;;
45274;SDS011;31019;43.780;25.948;2023-04-03T05:12:10;65.63;;;59.53;;
45274;SDS011;31019;43.780;25.948;2023-04-03T05:14:38;69.68;;;63.30;;
45274;SDS011;31019;43.780;25.948;2023-04-03T05:17:05;72.03;;;65.30;;
45274;SDS011;31019;43.780;25.948;2023-04-03T05:19:31;76.90;;;70.10;;
45274;SDS011;31019;43.780;25.948;2023-04-03T05:21:58;76.75;;;69.93;;
45274;SDS011;31019;43.780;25.948;2023-04-03T05:24:25;77.47;;;70.68;;
45274;SDS011;31019;43.780;25.948;2023-04-03T05:26:52;80.95;;;74.00;;
45274;SDS011;31019;43.780;25.948;2023-04-03T05:29:18;79.90;;;73.32;;
45274;SDS011;31019;43.780;25.948;2023-04-03T05:31:50;88.00;;;80.78;;
45274;SDS011;31019;43.780;25.948;2023-04-03T05:34:17;92.15;;;84.25;;
45274;SDS011;31019;43.780;25.948;2023-04-03T05:36:43;90.75;;;83.05;;
45274;SDS011;31019;43.780;25.948;2023-04-03T05:39:10;96.88;;;88.68;;
45274;SDS011;31019;43.780;25.948;2023-04-03T05:41:37;93.57;;;86.07;;
45274;SDS011;31019;43.780;25.948;2023-04-03T05:44:04;87.10;;;79.93;;
45274;SDS011;31019;43.780;25.948;2023-04-03T05:46:31;91.78;;;84.40;;
45274;SDS011;31019;43.780;25.948;2023-04-03T05:48:59;86.75;;;80.35;;
45274;SDS011;31019;43.780;25.948;2023-04-03T05:51:28;79.30;;;73.20;;
45274;SDS011;31019;43.780;25.948;2023-04-03T05:53:59;70.70;;;65.20;;
45274;SDS011;31019;43.780;25.948;2023-04-03T05:56:31;62.95;;;58.05;;
45274;SDS011;31019;43.780;25.948;2023-04-03T05:58:57;59.47;;;54.78;;
45274;SDS011;31019;43.780;25.948;2023-04-03T06:01:24;60.53;;;55.92;;
45274;SDS011;31019;43.780;25.948;2023-04-03T06:03:51;63.35;;;58.55;;
45274;SDS011;31019;43.780;25.948;2023-04-03T06:06:20;57.53;;;53.03;;
45274;SDS011;31019;43.780;25.948;2023-04-03T06:08:47;57.08;;;52.65;;
45274;SDS011;31019;43.780;25.948;2023-04-03T06:11:14;59.92;;;55.53;;
45274;SDS011;31019;43.780;25.948;2023-04-03T06:13:41;47.17;;;43.38;;
45274;SDS011;31019;43.780;25.948;2023-04-03T06:16:08;50.22;;;46.22;;
45274;SDS011;31019;43.780;25.948;2023-04-03T06:18:39;51.78;;;47.67;;
45274;SDS011;31019;43.780;25.948;2023-04-03T06:21:06;60.53;;;55.83;;
45274;SDS011;31019;43.780;25.948;2023-04-03T06:23:34;57.20;;;52.53;;
45274;SDS011;31019;43.780;25.948;2023-04-03T06:26:01;62.70;;;57.75;;
45274;SDS011;31019;43.780;25.948;2023-04-03T06:28:28;75.30;;;69.45;;
45274;SDS011;31019;43.780;25.948;2023-04-03T06:30:55;77.63;;;71.78;;
45274;SDS011;31019;43.780;25.948;2023-04-03T06:33:22;61.70;;;57.25;;
45274;SDS011;31019;43.780;25.948;2023-04-03T06:35:49;43.53;;;40.20;;
45274;SDS011;31019;43.780;25.948;2023-04-03T06:38:15;40.70;;;37.47;;
45274;SDS011;31019;43.780;25.948;2023-04-03T06:40:45;35.90;;;33.13;;
45274;SDS011;31019;43.780;25.948;2023-04-03T06:43:12;34.63;;;31.92;;
45274;SDS011;31019;43.780;25.948;2023-04-03T06:45:38;35.65;;;32.75;;
45274;SDS011;31019;43.780;25.948;2023-04-03T06:48:05;36.85;;;33.95;;
45274;SDS011;31019;43.780;25.948;2023-04-03T06:50:32;35.15;;;32.20;;
45274;SDS011;31019;43.780;25.948;2023-04-03T06:52:59;40.55;;;37.25;;
45274;SDS011;31019;43.780;25.948;2023-04-03T06:55:27;34.42;;;31.80;;
45274;SDS011;31019;43.780;25.948;2023-04-03T06:57:55;35.72;;;33.30;;
45274;SDS011;31019;43.780;25.948;2023-04-03T07:00:22;34.13;;;31.73;;
45274;SDS011;31019;43.780;25.948;2023-04-03T07:02:49;33.60;;;31.30;;
45274;SDS011;31019;43.780;25.948;2023-04-03T07:05:16;33.65;;;31.35;;
45274;SDS011;31019;43.780;25.948;2023-04-03T07:07:44;33.85;;;31.45;;
45274;SDS011;31019;43.780;25.948;2023-04-03T07:10:10;31.08;;;28.98;;
45274;SDS011;31019;43.780;25.948;2023-04-03T07:12:37;37.30;;;34.63;;
45274;SDS011;31019;43.780;25.948;2023-04-03T07:15:06;38.00;;;35.10;;
45274;SDS011;31019;43.780;25.948;2023-04-03T07:17:34;40.45;;;37.42;;
45274;SDS011;31019;43.780;25.948;2023-04-03T07:20:02;40.55;;;37.65;;
45274;SDS011;31019;43.780;25.948;2023-04-03T07:22:30;31.35;;;29.15;;
45274;SDS011;31019;43.780;25.948;2023-04-03T07:24:57;35.92;;;33.22;;
45274;SDS011;31019;43.780;25.948;2023-04-03T07:27:24;36.90;;;34.38;;
45274;SDS011;31019;43.780;25.948;2023-04-03T07:29:51;35.55;;;33.20;;
45274;SDS011;31019;43.780;25.948;2023-04-03T07:32:19;34.42;;;31.92;;
45274;SDS011;31019;43.780;25.948;2023-04-03T07:34:46;30.23;;;28.15;;
45274;SDS011;31019;43.780;25.948;2023-04-03T07:37:12;33.22;;;30.77;;
45274;SDS011;31019;43.780;25.948;2023-04-03T07:39:39;31.80;;;29.60;;
45274;SDS011;31019;43.780;25.948;2023-04-03T07:42:10;39.22;;;36.03;;
45274;SDS011;31019;43.780;25.948;2023-04-03T07:44:37;35.13;;;32.42;;
45274;SDS011;31019;43.780;25.948;2023-04-03T07:47:04;34.50;;;31.90;;
45274;SDS011;31019;43.780;25.948;2023-04-03T07:49:32;38.40;;;35.60;;
45274;SDS011;31019;43.780;25.948;2023-04-03T07:51:59;36.97;;;34.38;;
45274;SDS011;31019;43.780;25.948;2023-04-03T07:54:26;31.10;;;28.80;;
45274;SDS011;31019;43.780;25.948;2023-04-03T07:56:53;32.25;;;29.92;;
45274;SDS011;31019;43.780;25.948;2023-04-03T07:59:20;30.88;;;28.75;;
45274;SDS011;31019;43.780;25.948;2023-04-03T08:01:47;30.88;;;28.88;;
45274;SDS011;31019;43.780;25.948;2023-04-03T08:04:14;35.45;;;32.67;;
45274;SDS011;31019;43.780;25.948;2023-04-03T08:06:42;35.80;;;33.30;;
45274;SDS011;31019;43.780;25.948;2023-04-03T08:09:08;38.65;;;35.83;;
45274;SDS011;31019;43.780;25.948;2023-04-03T08:11:35;31.40;;;29.20;;
45274;SDS011;31019;43.780;25.948;2023-04-03T08:14:05;33.13;;;30.83;;
45274;SDS011;31019;43.780;25.948;2023-04-03T08:16:32;35.30;;;32.80;;
45274;SDS011;31019;43.780;25.948;2023-04-03T08:18:59;25.95;;;24.20;;
45274;SDS011;31019;43.780;25.948;2023-04-03T08:21:26;27.45;;;25.75;;
45274;SDS011;31019;43.780;25.948;2023-04-03T08:23:54;26.00;;;24.33;;
45274;SDS011;31019;43.780;25.948;2023-04-03T08:26:21;33.13;;;30.98;;
45274;SDS011;31019;43.780;25.948;2023-04-03T08:28:48;31.05;;;28.88;;
45274;SDS011;31019;43.780;25.948;2023-04-03T08:31:16;29.77;;;27.70;;
45274;SDS011;31019;43.780;25.948;2023-04-03T08:33:44;23.80;;;22.20;;
45274;SDS011;31019;43.780;25.948;2023-04-03T08:36:19;24.38;;;22.67;;
45274;SDS011;31019;43.780;25.948;2023-04-03T08:38:48;22.40;;;20.95;;
45274;SDS011;31019;43.780;25.948;2023-04-03T08:41:19;24.92;;;23.33;;
45274;SDS011;31019;43.780;25.948;2023-04-03T08:44:03;22.38;;;20.92;;
45274;SDS011;31019;43.780;25.948;2023-04-03T08:46:44;22.55;;;21.15;;
45274;SDS011;31019;43.780;25.948;2023-04-03T08:49:21;24.25;;;22.75;;
45274;SDS011;31019;43.780;25.948;2023-04-03T08:51:52;22.40;;;21.00;;
45274;SDS011;31019;43.780;25.948;2023-04-03T08:54:23;23.77;;;22.27;;
45274;SDS011;31019;43.780;25.948;2023-04-03T08:56:56;21.80;;;20.30;;
45274;SDS011;31019;43.780;25.948;2023-04-03T08:59:26;22.05;;;20.63;;
45274;SDS011;31019;43.780;25.948;2023-04-03T09:01:56;21.67;;;20.08;;
45274;SDS011;31019;43.780;25.948;2023-04-03T09:04:27;25.30;;;23.60;;
45274;SDS011;31019;43.780;25.948;2023-04-03T09:06:58;26.65;;;24.77;;
45274;SDS011;31019;43.780;25.948;2023-04-03T09:09:34;28.17;;;26.48;;
45274;SDS011;31019;43.780;25.948;2023-04-03T09:12:10;33.75;;;31.45;;
45274;SDS011;31019;43.780;25.948;2023-04-03T09:14:44;26.55;;;24.75;;
45274;SDS011;31019;43.780;25.948;2023-04-03T09:17:21;25.98;;;24.08;;
45274;SDS011;31019;43.780;25.948;2023-04-03T09:19:57;24.52;;;22.73;;
45274;SDS011;31019;43.780;25.948;2023-04-03T09:22:31;23.02;;;21.42;;
45274;SDS011;31019;43.780;25.948;2023-04-03T09:25:01;22.88;;;21.17;;
45274;SDS011;31019;43.780;25.948;2023-04-03T09:27:34;23.95;;;22.25;;
45274;SDS011;31019;43.780;25.948;2023-04-03T09:30:01;23.35;;;21.55;;
45274;SDS011;31019;43.780;25.948;2023-04-03T09:32:28;24.08;;;21.88;;
45274;SDS011;31019;43.780;25.948;2023-04-03T09:34:58;21.33;;;19.83;;
45274;SDS011;31019;43.780;25.948;2023-04-03T09:37:36;22.60;;;20.90;;
45274;SDS011;31019;43.780;25.948;2023-04-03T09:40:05;25.77;;;23.67;;
45274;SDS011;31019;43.780;25.948;2023-04-03T09:42:55;23.92;;;22.13;;
45274;SDS011;31019;43.780;25.948;2023-04-03T09:45:24;24.83;;;23.13;;
45274;SDS011;31019;43.780;25.948;2023-04-03T09:48:04;27.25;;;25.33;;
45274;SDS011;31019;43.780;25.948;2023-04-03T09:50:32;25.80;;;24.00;;
45274;SDS011;31019;43.780;25.948;2023-04-03T09:53:02;26.65;;;24.75;;
45274;SDS011;31019;43.780;25.948;2023-04-03T09:55:33;24.60;;;22.70;;
45274;SDS011;31019;43.780;25.948;2023-04-03T09:58:24;22.52;;;20.73;;
45274;SDS011;31019;43.780;25.948;2023-04-03T10:00:56;25.52;;;23.73;;
45274;SDS011;31019;43.780;25.948;2023-04-03T10:03:25;23.90;;;22.20;;
45274;SDS011;31019;43.780;25.948;2023-04-03T10:05:55;26.23;;;24.23;;
45274;SDS011;31019;43.780;25.948;2023-04-03T10:08:24;24.83;;;22.98;;
45274;SDS011;31019;43.780;25.948;2023-04-03T10:11:07;24.60;;;22.80;;
45274;SDS011;31019;43.780;25.948;2023-04-03T10:13:48;24.45;;;22.65;;
45274;SDS011;31019;43.780;25.948;2023-04-03T10:16:17;25.80;;;24.00;;
45274;SDS011;31019;43.780;25.948;2023-04-03T10:18:49;24.55;;;22.85;;
45274;SDS011;31019;43.780;25.948;2023-04-03T10:21:29;22.08;;;20.58;;
45274;SDS011;31019;43.780;25.948;2023-04-03T10:24:06;24.70;;;23.00;;
45274;SDS011;31019;43.780;25.948;2023-04-03T10:26:39;27.27;;;25.35;;
45274;SDS011;31019;43.780;25.948;2023-04-03T10:29:19;23.48;;;21.73;;
45274;SDS011;31019;43.780;25.948;2023-04-03T10:31:57;23.42;;;21.70;;
45274;SDS011;31019;43.780;25.948;2023-04-03T10:34:39;22.63;;;21.02;;
45274;SDS011;31019;43.780;25.948;2023-04-03T10:37:10;23.65;;;22.05;;
45274;SDS011;31019;43.780;25.948;2023-04-03T10:39:50;22.63;;;21.13;;
45274;SDS011;31019;43.780;25.948;2023-04-03T10:42:22;24.50;;;22.75;;
45274;SDS011;31019;43.780;25.948;2023-04-03T10:45:05;24.13;;;22.42;;
45274;SDS011;31019;43.780;25.948;2023-04-03T10:47:46;23.13;;;21.30;;
45274;SDS011;31019;43.780;25.948;2023-04-03T10:50:27;24.13;;;22.48;;
45274;SDS011;31019;43.780;25.948;2023-04-03T10:53:04;25.13;;;23.02;;
45274;SDS011;31019;43.780;25.948;2023-04-03T10:55:36;24.45;;;22.20;;
45274;SDS011;31019;43.780;25.948;2023-04-03T10:58:16;23.83;;;21.38;;
45274;SDS011;31019;43.780;25.948;2023-04-03T11:00:51;26.08;;;22.45;;
45274;SDS011;31019;43.780;25.948;2023-04-03T11:03:24;24.33;;;22.42;;
45274;SDS011;31019;43.780;25.948;2023-04-03T11:05:57;21.65;;;20.08;;
45274;SDS011;31019;43.780;25.948;2023-04-03T11:08:29;23.10;;;21.35;;
45274;SDS011;31019;43.780;25.948;2023-04-03T11:11:02;21.92;;;20.33;;
45274;SDS011;31019;43.780;25.948;2023-04-03T11:13:33;22.67;;;21.08;;
45274;SDS011;31019;43.780;25.948;2023-04-03T11:16:06;20.60;;;19.08;;
45274;SDS011;31019;43.780;25.948;2023-04-03T11:18:35;21.20;;;19.75;;
45274;SDS011;31019;43.780;25.948;2023-04-03T11:21:08;22.50;;;20.73;;
45274;SDS011;31019;43.780;25.948;2023-04-03T11:23:40;21.15;;;19.67;;
45274;SDS011;31019;43.780;25.948;2023-04-03T11:26:10;25.83;;;23.83;;
45274;SDS011;31019;43.780;25.948;2023-04-03T11:28:38;28.50;;;26.60;;
45274;SDS011;31019;43.780;25.948;2023-04-03T11:31:10;26.10;;;24.40;;
45274;SDS011;31019;43.780;25.948;2023-04-03T11:33:58;23.70;;;21.90;;
45274;SDS011;31019;43.780;25.948;2023-04-03T11:36:34;23.42;;;21.83;;
45274;SDS011;31019;43.780;25.948;2023-04-03T11:39:10;23.60;;;21.90;;
45274;SDS011;31019;43.780;25.948;2023-04-03T11:41:46;22.58;;;20.88;;
45274;SDS011;31019;43.780;25.948;2023-04-03T11:44:29;24.05;;;22.20;;
45274;SDS011;31019;43.780;25.948;2023-04-03T11:47:01;22.88;;;21.17;;
45274;SDS011;31019;43.780;25.948;2023-04-03T11:55:51;23.05;;;21.35;;
45274;SDS011;31019;43.780;25.948;2023-04-03T11:58:36;22.50;;;20.70;;
45274;SDS011;31019;43.780;25.948;2023-04-03T12:01:06;22.33;;;20.58;;
45274;SDS011;31019;43.780;25.948;2023-04-03T12:12:41;22.23;;;20.52;;
45274;SDS011;31019;43.780;25.948;2023-04-03T12:15:17;21.65;;;20.15;;
45274;SDS011;31019;43.780;25.948;2023-04-03T12:17:59;21.40;;;19.80;;
45274;SDS011;31019;43.780;25.948;2023-04-03T12:21:07;24.55;;;22.55;;
45274;SDS011;31019;43.780;25.948;2023-04-03T12:23:35;24.27;;;22.17;;
45274;SDS011;31019;43.780;25.948;2023-04-03T12:26:18;28.02;;;25.63;;
45274;SDS011;31019;43.780;25.948;2023-04-03T12:28:47;21.33;;;19.83;;
45274;SDS011;31019;43.780;25.948;2023-04-03T12:31:17;28.52;;;26.10;;
45274;SDS011;31019;43.780;25.948;2023-04-03T12:33:57;28.42;;;26.00;;
45274;SDS011;31019;43.780;25.948;2023-04-03T12:36:47;21.50;;;19.80;;
45274;SDS011;31019;43.780;25.948;2023-04-03T12:39:41;20.90;;;19.60;;
45274;SDS011;31019;43.780;25.948;2023-04-03T12:42:20;22.67;;;20.98;;
45274;SDS011;31019;43.780;25.948;2023-04-03T12:44:56;25.13;;;23.13;;
45274;SDS011;31019;43.780;25.948;2023-04-03T12:47:35;22.13;;;20.40;;
45274;SDS011;31019;43.780;25.948;2023-04-03T12:50:13;21.85;;;20.35;;
45274;SDS011;31019;43.780;25.948;2023-04-03T12:52:47;22.95;;;21.45;;
45274;SDS011;31019;43.780;25.948;2023-04-03T12:55:21;22.52;;;20.92;;
45274;SDS011;31019;43.780;25.948;2023-04-03T12:57:48;22.77;;;21.27;;
45274;SDS011;31019;43.780;25.948;2023-04-03T13:00:18;23.13;;;21.52;;
45274;SDS011;31019;43.780;25.948;2023-04-03T13:02:54;24.25;;;22.55;;
45274;SDS011;31019;43.780;25.948;2023-04-03T13:05:21;23.70;;;22.10;;
45274;SDS011;31019;43.780;25.948;2023-04-03T13:07:52;22.58;;;21.00;;
45274;SDS011;31019;43.780;25.948;2023-04-03T13:10:23;20.92;;;19.52;;
45274;SDS011;31019;43.780;25.948;2023-04-03T13:12:50;21.92;;;20.35;;
45274;SDS011;31019;43.780;25.948;2023-04-03T13:15:21;21.20;;;19.48;;
45274;SDS011;31019;43.780;25.948;2023-04-03T13:17:51;21.65;;;20.13;;
45274;SDS011;31019;43.780;25.948;2023-04-03T13:20:20;22.20;;;20.60;;
45274;SDS011;31019;43.780;25.948;2023-04-03T13:22:53;21.90;;;20.40;;
45274;SDS011;31019;43.780;25.948;2023-04-03T13:25:24;26.20;;;23.73;;
45274;SDS011;31019;43.780;25.948;2023-04-03T13:27:53;24.48;;;22.67;;
45274;SDS011;31019;43.780;25.948;2023-04-03T13:30:25;26.15;;;24.45;;
45274;SDS011;31019;43.780;25.948;2023-04-03T13:32:55;21.08;;;19.58;;
45274;SDS011;31019;43.780;25.948;2023-04-03T13:35:34;26.70;;;25.00;;
45274;SDS011;31019;43.780;25.948;2023-04-03T13:38:06;23.77;;;22.17;;
45274;SDS011;31019;43.780;25.948;2023-04-03T13:40:48;26.77;;;25.08;;
45274;SDS011;31019;43.780;25.948;2023-04-03T13:43:19;30.55;;;28.35;;
45274;SDS011;31019;43.780;25.948;2023-04-03T13:46:02;26.90;;;24.95;;
45274;SDS011;31019;43.780;25.948;2023-04-03T13:48:35;28.33;;;26.33;;
45274;SDS011;31019;43.780;25.948;2023-04-03T13:51:04;26.23;;;24.52;;
45274;SDS011;31019;43.780;25.948;2023-04-03T13:53:40;28.00;;;26.10;;
45274;SDS011;31019;43.780;25.948;2023-04-03T13:56:13;31.48;;;29.38;;
45274;SDS011;31019;43.780;25.948;2023-04-03T13:58:52;32.85;;;30.52;;
45274;SDS011;31019;43.780;25.948;2023-04-03T14:01:24;32.20;;;30.20;;
45274;SDS011;31019;43.780;25.948;2023-04-03T14:03:52;32.20;;;30.20;;
45274;SDS011;31019;43.780;25.948;2023-04-03T14:06:21;25.40;;;23.73;;
45274;SDS011;31019;43.780;25.948;2023-04-03T14:08:50;38.25;;;35.72;;
45274;SDS011;31019;43.780;25.948;2023-04-03T14:11:18;39.40;;;36.67;;
45274;SDS011;31019;43.780;25.948;2023-04-03T14:13:47;42.90;;;40.00;;
45274;SDS011;31019;43.780;25.948;2023-04-03T14:16:16;37.47;;;34.88;;
45274;SDS011;31019;43.780;25.948;2023-04-03T14:18:45;43.83;;;40.72;;
45274;SDS011;31019;43.780;25.948;2023-04-03T14:21:13;42.97;;;39.95;;
45274;SDS011;31019;43.780;25.948;2023-04-03T14:23:41;43.25;;;40.00;;
45274;SDS011;31019;43.780;25.948;2023-04-03T14:26:11;28.00;;;26.23;;
45274;SDS011;31019;43.780;25.948;2023-04-03T14:28:39;50.08;;;46.47;;
45274;SDS011;31019;43.780;25.948;2023-04-03T14:31:06;36.40;;;33.53;;
45274;SDS011;31019;43.780;25.948;2023-04-03T14:33:33;45.58;;;42.17;;
45274;SDS011;31019;43.780;25.948;2023-04-03T14:36:01;41.00;;;37.83;;
45274;SDS011;31019;43.780;25.948;2023-04-03T14:38:37;50.75;;;47.05;;
45274;SDS011;31019;43.780;25.948;2023-04-03T14:41:04;37.67;;;34.67;;
45274;SDS011;31019;43.780;25.948;2023-04-03T14:43:32;36.85;;;33.75;;
45274;SDS011;31019;43.780;25.948;2023-04-03T14:45:59;37.90;;;34.90;;
45274;SDS011;31019;43.780;25.948;2023-04-03T14:48:27;39.13;;;36.03;;
45274;SDS011;31019;43.780;25.948;2023-04-03T14:50:55;38.80;;;35.65;;
45274;SDS011;31019;43.780;25.948;2023-04-03T14:53:21;55.35;;;50.25;;